In Rescue
 
Open Full Screen Window  High Contrast Mode
Wind Gusting 00 knots
05
June 20, 2021 10:58 AM CDT
Present Weather: Rain
Weather Information
Wind Direction
  010 °
Wind Speed
  05 kt (6 mph)
Wind Gust
  00 kt (0 mph)
Altimeter
29.69 in
Visibility
7 SM
Temperature
15° C
59° F
Dewpoint
14° C
57° F
Humidity
94%
1hr Rain Fall
00.04 in.
24hr Rain Fall
00.51 in.
Sky Condition
Overcast @ 4,300 ft
Broken @ 3,500 ft
VFR

METAR KBJI 201558Z AUTO 01005KT 7SM RA BKN035 OVC043 15/14 A2969 RMK AO2 P0004 T01450144

FAA Disclaimer: The data displayed is for advisory purposes only and is not to be used for flight planning or operations.